Time;durP1;ratioP1;P1;durP2;ratioP2;P2;SDS_P1;SDS_P2;PMS_P1;PMS_P2;Temp;Humidity;BMP_temperature;BMP_pressure;BME280_temperature;BME280_humidity;BME280_pressure;Samples;Min_cycle;Max_cycle;Signal;HPM_P1;HPM_P2
2023/05/09 00:00:05;;;;;;;7.70;5.32;;;;;;;4.81;60.59;101275.25;30993081;28;97030;-73
2023/05/09 00:15:08;;;;;;;8.80;5.20;;;;;;;4.61;61.22;101272.19;30992441;28;97347;-71
2023/05/09 00:30:08;;;;;;;9.07;5.40;;;;;;;4.46;61.69;101257.41;30990947;28;96690;-72
2023/05/09 00:45:09;;;;;;;7.22;4.50;;;;;;;4.31;62.56;101239.03;30989040;28;96778;-71
2023/05/09 01:00:11;;;;;;;7.72;4.93;;;;;;;4.16;62.76;101240.06;30987456;28;97254;-67
2023/05/09 01:15:21;;;;;;;7.93;5.18;;;;;;;4.00;63.17;101225.25;30985220;28;97315;-65
2023/05/09 01:30:24;;;;;;;9.75;4.35;;;;;;;3.90;63.84;101218.91;30984873;28;96682;-64
2023/05/09 01:45:26;;;;;;;11.60;4.60;;;;;;;3.77;63.89;101212.75;30982421;28;96675;-72
2023/05/09 02:00:27;;;;;;;9.23;4.88;;;;;;;3.63;64.76;101211.84;30982157;28;96772;-73
2023/05/09 02:15:28;;;;;;;9.30;5.03;;;;;;;3.50;64.92;101205.69;30980819;28;97327;-66
2023/05/09 02:30:35;;;;;;;7.75;4.90;;;;;;;3.39;65.51;101199.34;30979742;28;96702;-68
2023/05/09 02:45:35;;;;;;;10.40;5.63;;;;;;;3.28;66.14;101190.44;30977862;28;97774;-66
2023/05/09 03:00:36;;;;;;;8.55;5.10;;;;;;;3.14;66.24;101178.16;30975849;28;96657;-71
2023/05/09 03:15:36;;;;;;;11.57;5.45;;;;;;;3.03;66.74;101171.78;30974235;28;97719;-72
2023/05/09 03:30:36;;;;;;;10.80;5.80;;;;;;;3.05;67.42;101166.44;30972481;28;96658;-66
2023/05/09 03:45:37;;;;;;;12.98;5.03;;;;;;;3.11;67.71;101167.81;30971058;28;113548;-70
2023/05/09 04:00:39;;;;;;;8.70;5.28;;;;;;;3.27;67.63;101173.78;30913833;28;97486;-75
2023/05/09 04:15:39;;;;;;;10.02;5.78;;;;;;;3.51;67.88;101170.50;30868983;28;96646;-68
2023/05/09 04:30:39;;;;;;;14.80;5.80;;;;;;;3.87;68.10;101171.66;30863288;28;96656;-68
2023/05/09 04:45:40;;;;;;;11.85;5.80;;;;;;;4.44;68.28;101166.94;30862219;28;112548;-71
2023/05/09 05:00:40;;;;;;;8.52;5.57;;;;;;;5.13;67.83;101163.88;30857324;28;97360;-66
2023/05/09 05:15:41;;;;;;;12.40;6.20;;;;;;;5.91;67.49;101157.22;30856879;28;99800;-65
2023/05/09 05:30:41;;;;;;;7.18;4.97;;;;;;;6.85;66.75;101155.28;30858946;28;96681;-70
2023/05/09 05:45:41;;;;;;;10.55;4.65;;;;;;;7.79;65.30;101144.13;30856124;28;97250;-66
2023/05/09 06:00:42;;;;;;;7.65;4.78;;;;;;;8.59;62.93;101134.69;30855097;28;107726;-70
2023/05/09 06:15:42;;;;;;;6.82;4.35;;;;;;;9.40;61.36;101125.75;30853442;28;109249;-72
2023/05/09 06:30:43;;;;;;;7.88;4.25;;;;;;;9.94;58.11;101127.97;30852755;28;96755;-68
2023/05/09 06:45:43;;;;;;;7.43;3.55;;;;;;;10.34;56.62;101105.56;30850211;28;97486;-67
2023/05/09 07:00:44;;;;;;;4.70;3.15;;;;;;;10.84;54.03;101109.72;30850436;28;97456;-67
2023/05/09 07:15:44;;;;;;;6.63;3.50;;;;;;;11.47;52.89;101095.50;30851231;28;97195;-67
2023/05/09 08:12:59;;;;;;;5.00;2.40;;;;;;;14.08;43.37;101035.06;31044034;28;98401;-71
2023/05/09 08:28:00;;;;;;;5.45;2.90;;;;;;;14.09;41.17;101036.72;31048871;28;97520;-68
2023/05/09 08:43:01;;;;;;;4.88;2.70;;;;;;;14.03;40.70;100984.66;31051394;28;98476;-69
2023/05/09 08:58:03;;;;;;;4.23;2.27;;;;;;;14.49;39.78;100989.31;30997130;28;97301;-66
2023/05/09 09:13:04;;;;;;;6.50;2.53;;;;;;;14.75;38.58;100964.03;30848467;28;98544;-64
2023/05/09 09:28:04;;;;;;;4.53;1.90;;;;;;;15.89;37.35;100952.41;30838861;28;97048;-70
2023/05/09 09:43:06;;;;;;;7.07;2.35;;;;;;;15.94;36.50;100933.00;30841750;28;97493;-65
2023/05/09 09:58:16;;;;;;;5.83;2.27;;;;;;;16.48;35.41;100929.91;30835509;28;97118;-69
2023/05/09 10:13:16;;;;;;;3.37;2.20;;;;;;;17.13;34.09;100908.38;30795770;28;96998;-65
2023/05/09 10:28:21;;;;;;;4.18;1.95;;;;;;;17.58;32.50;100892.69;30739137;28;96733;-66
2023/05/09 10:43:23;;;;;;;6.10;2.03;;;;;;;17.28;33.15;100846.34;30736946;28;96711;-67
2023/05/09 10:58:25;;;;;;;3.83;2.03;;;;;;;17.65;32.01;100832.66;30734786;28;97297;-68
2023/05/09 11:13:30;;;;;;;6.73;2.50;;;;;;;18.70;32.30;100813.31;30733497;28;96754;-68
2023/05/09 11:28:33;;;;;;;6.50;2.20;;;;;;;19.48;31.18;100793.66;30734032;28;96711;-68
2023/05/09 11:43:35;;;;;;;5.90;1.80;;;;;;;19.44;29.96;100768.09;30731577;28;97196;-67
2023/05/09 11:58:38;;;;;;;4.17;2.57;;;;;;;19.00;29.84;100756.19;30733540;28;96642;-78
2023/05/09 12:13:48;;;;;;;4.43;1.93;;;;;;;19.35;29.26;100728.88;30732064;28;96787;-71
2023/05/09 12:28:49;;;;;;;6.07;1.83;;;;;;;19.10;28.39;100721.50;30730760;28;96675;-81
2023/05/09 12:43:50;;;;;;;4.03;2.07;;;;;;;18.88;28.49;100715.56;30844155;28;97236;-72
2023/05/09 12:58:52;;;;;;;4.45;2.28;;;;;;;18.36;29.73;100677.66;30789481;28;97301;-74
2023/05/09 13:13:53;;;;;;;6.17;1.80;;;;;;;18.49;29.48;100666.00;30825948;28;96681;-69
2023/05/09 13:28:54;;;;;;;10.93;2.77;;;;;;;18.15;30.46;100644.50;30864801;28;96598;-69
2023/05/09 13:43:55;;;;;;;4.50;2.17;;;;;;;18.02;30.79;100637.22;30862772;28;96597;-70
2023/05/09 13:58:55;;;;;;;8.60;2.47;;;;;;;17.71;31.25;100610.88;30861910;28;110786;-69
2023/05/09 14:13:55;;;;;;;6.35;2.47;;;;;;;17.70;32.16;100583.13;30849327;28;108036;-70
2023/05/09 14:28:56;;;;;;;6.00;2.85;;;;;;;17.70;31.32;100568.81;30822715;28;98233;-76
2023/05/09 14:43:56;;;;;;;4.15;2.67;;;;;;;17.35;32.18;100544.78;30793616;28;97464;-69
2023/05/09 14:58:57;;;;;;;5.13;2.33;;;;;;;17.24;32.84;100541.66;30776441;28;97245;-69
2023/05/09 15:13:57;;;;;;;7.90;2.80;;;;;;;17.04;32.68;100541.63;30797711;28;96956;-70
2023/05/09 15:28:57;;;;;;;5.20;2.38;;;;;;;16.78;32.83;100515.47;30829224;28;96975;-68
2023/05/09 15:43:58;;;;;;;4.10;2.25;;;;;;;16.71;32.86;100522.69;30848606;28;96966;-68
2023/05/09 15:58:59;;;;;;;7.20;2.95;;;;;;;16.63;32.74;100486.03;30847479;28;96994;-68
2023/05/09 16:13:59;;;;;;;4.03;2.58;;;;;;;16.53;33.59;100454.16;30852737;28;96979;-69
2023/05/09 16:29:00;;;;;;;6.47;2.53;;;;;;;16.37;33.65;100435.72;30860520;28;97263;-67
2023/05/09 16:44:01;;;;;;;3.73;2.00;;;;;;;16.22;34.20;100415.22;30857066;28;97311;-71
2023/05/09 16:59:02;;;;;;;2.97;2.17;;;;;;;16.08;34.46;100414.31;30854756;28;96927;-67
2023/05/09 17:14:02;;;;;;;6.57;2.20;;;;;;;15.76;34.87;100394.31;30861923;28;97619;-67
2023/05/09 17:29:03;;;;;;;5.10;2.47;;;;;;;15.45;35.84;100382.19;30841986;28;102904;-67
2023/05/09 17:44:03;;;;;;;8.18;3.95;;;;;;;15.04;36.50;100372.22;30778667;28;97176;-69
2023/05/09 17:59:04;;;;;;;12.20;3.83;;;;;;;14.60;37.66;100373.25;30843462;28;97179;-67
2023/05/09 18:14:05;;;;;;;5.75;2.63;;;;;;;14.12;38.93;100369.28;30836718;28;97170;-70
2023/05/09 18:29:05;;;;;;;5.88;3.28;;;;;;;13.63;40.37;100369.94;30848438;28;96998;-67
2023/05/09 18:44:06;;;;;;;5.57;2.97;;;;;;;13.23;41.01;100382.69;30845559;28;96954;-68
2023/05/09 18:59:08;;;;;;;5.50;3.33;;;;;;;12.76;42.27;100382.78;30841177;28;97116;-68
2023/05/09 19:14:08;;;;;;;5.53;3.63;;;;;;;12.40;42.58;100388.75;30845152;28;96771;-67
2023/05/09 19:29:08;;;;;;;5.68;3.33;;;;;;;12.04;43.57;100394.63;30845493;28;96784;-67
2023/05/09 19:44:09;;;;;;;9.15;4.00;;;;;;;11.71;44.11;100392.06;30794466;28;96812;-70
2023/05/09 19:59:09;;;;;;;9.52;3.60;;;;;;;11.37;45.81;100381.69;30783279;28;109856;-67
2023/05/09 20:14:10;;;;;;;6.47;3.42;;;;;;;11.08;45.79;100375.88;30839504;28;97123;-69
2023/05/09 20:29:10;;;;;;;9.50;4.38;;;;;;;10.82;46.93;100368.91;30848993;28;97665;-68
2023/05/09 20:44:12;;;;;;;7.25;3.72;;;;;;;10.60;47.13;100364.28;30843092;28;97209;-70
2023/05/09 20:59:12;;;;;;;7.50;3.47;;;;;;;10.46;47.32;100347.94;30850399;28;98195;-67
2023/05/09 21:14:12;;;;;;;5.13;3.25;;;;;;;10.31;47.26;100342.41;30859707;28;109592;-67
2023/05/09 21:29:13;;;;;;;6.68;3.40;;;;;;;10.26;47.52;100323.41;30857997;28;96726;-67
2023/05/09 21:44:13;;;;;;;5.82;2.78;;;;;;;10.10;48.10;100313.59;30849585;28;104099;-67
2023/05/09 21:59:16;;;;;;;8.35;3.92;;;;;;;9.89;48.02;100322.03;30837713;28;97531;-67
2023/05/09 22:14:17;;;;;;;10.80;4.77;;;;;;;9.72;48.54;100315.84;30862895;28;96742;-66
2023/05/09 22:29:17;;;;;;;9.13;3.97;;;;;;;9.56;48.76;100302.50;30861840;28;96670;-67
2023/05/09 22:44:17;;;;;;;9.10;3.53;;;;;;;9.51;49.74;100299.47;30860939;28;96681;-68
2023/05/09 22:59:18;;;;;;;5.38;3.47;;;;;;;9.26;49.47;100288.75;30855768;28;111680;-67
2023/05/09 23:14:18;;;;;;;6.43;4.35;;;;;;;9.02;49.82;100281.47;30851501;28;106671;-67
2023/05/09 23:29:19;;;;;;;6.03;3.78;;;;;;;8.75;50.93;100262.91;30850606;28;96629;-67
2023/05/09 23:44:19;;;;;;;8.70;3.88;;;;;;;8.50;51.62;100259.22;30850384;28;97289;-66
2023/05/09 23:59:19;;;;;;;6.80;3.97;;;;;;;8.22;52.39;100245.22;30848877;28;97192;-66
